logo
Search for airport 
image banner adimage banner adimage banner ad
image banner ad

YNEW - Newlands Coal

Located in , Australia

ICAO - , IATA -

Data provided by Airmate  

General information

Coordinates: S21°10'18" E147°54'32"
Elevation is 833 feet MSL.
 
View others Airports in Queensland

Operational data

Special qualification required
Current time UTC:
Current local time:
Weather at : - ( 0 km )
METAR: KPKV 162043Z AUTO 14009KT 10SM SCT028 SCT035 SCT060 32/26 A2997 RMK AO2
View NOTAMs / SUP AIP / TFR affecting this airport [VIEW]
Communications frequencies: [VIEW]

Runways:

Airport contact information

Address: Australia

Satellite view of YNEW